sensor_id;sensor_type;location;lat;lon;timestamp;temperature;humidity
18085;DHT22;9169;44.492;11.372;2024-03-22T00:02:19;18.80;54.80
18085;DHT22;9169;44.492;11.372;2024-03-22T00:04:46;18.70;54.60
18085;DHT22;9169;44.492;11.372;2024-03-22T00:07:13;18.70;54.30
18085;DHT22;9169;44.492;11.372;2024-03-22T00:09:40;18.80;54.30
18085;DHT22;9169;44.492;11.372;2024-03-22T00:12:09;18.80;54.20
18085;DHT22;9169;44.492;11.372;2024-03-22T00:14:37;18.80;54.20
18085;DHT22;9169;44.492;11.372;2024-03-22T00:17:04;18.80;54.20
18085;DHT22;9169;44.492;11.372;2024-03-22T00:19:32;18.80;54.20
18085;DHT22;9169;44.492;11.372;2024-03-22T00:21:58;18.80;54.10
18085;DHT22;9169;44.492;11.372;2024-03-22T00:24:26;18.80;54.20
18085;DHT22;9169;44.492;11.372;2024-03-22T00:26:52;18.80;54.10
18085;DHT22;9169;44.492;11.372;2024-03-22T00:29:21;18.80;54.40
18085;DHT22;9169;44.492;11.372;2024-03-22T00:31:48;18.80;54.80
18085;DHT22;9169;44.492;11.372;2024-03-22T00:34:15;18.70;54.80
18085;DHT22;9169;44.492;11.372;2024-03-22T00:36:42;18.70;54.90
18085;DHT22;9169;44.492;11.372;2024-03-22T00:39:10;18.60;54.90
18085;DHT22;9169;44.492;11.372;2024-03-22T00:41:37;18.60;54.80
18085;DHT22;9169;44.492;11.372;2024-03-22T00:44:04;18.60;54.60
18085;DHT22;9169;44.492;11.372;2024-03-22T00:46:32;18.60;54.50
18085;DHT22;9169;44.492;11.372;2024-03-22T00:49:01;18.60;54.90
18085;DHT22;9169;44.492;11.372;2024-03-22T00:51:28;18.50;55.00
18085;DHT22;9169;44.492;11.372;2024-03-22T00:53:56;18.40;55.30
18085;DHT22;9169;44.492;11.372;2024-03-22T00:56:22;18.40;55.50
18085;DHT22;9169;44.492;11.372;2024-03-22T00:58:50;18.30;55.60
18085;DHT22;9169;44.492;11.372;2024-03-22T01:01:17;18.30;55.80
18085;DHT22;9169;44.492;11.372;2024-03-22T01:03:46;18.20;56.10
18085;DHT22;9169;44.492;11.372;2024-03-22T01:06:12;18.20;56.30
18085;DHT22;9169;44.492;11.372;2024-03-22T01:08:40;18.20;56.40
18085;DHT22;9169;44.492;11.372;2024-03-22T01:11:07;18.10;56.30
18085;DHT22;9169;44.492;11.372;2024-03-22T01:13:34;18.10;56.40
18085;DHT22;9169;44.492;11.372;2024-03-22T01:16:01;18.10;56.50
18085;DHT22;9169;44.492;11.372;2024-03-22T01:18:28;18.10;56.30
18085;DHT22;9169;44.492;11.372;2024-03-22T01:20:56;18.10;56.00
18085;DHT22;9169;44.492;11.372;2024-03-22T01:23:24;18.10;56.10
18085;DHT22;9169;44.492;11.372;2024-03-22T01:25:50;18.20;55.90
18085;DHT22;9169;44.492;11.372;2024-03-22T01:28:18;18.20;55.70
18085;DHT22;9169;44.492;11.372;2024-03-22T01:30:45;18.20;55.50
18085;DHT22;9169;44.492;11.372;2024-03-22T01:33:12;18.20;55.40
18085;DHT22;9169;44.492;11.372;2024-03-22T01:35:39;18.20;55.20
18085;DHT22;9169;44.492;11.372;2024-03-22T01:38:09;18.20;55.30
18085;DHT22;9169;44.492;11.372;2024-03-22T01:40:36;18.20;55.40
18085;DHT22;9169;44.492;11.372;2024-03-22T01:43:04;18.20;55.70
18085;DHT22;9169;44.492;11.372;2024-03-22T01:45:32;18.10;55.80
18085;DHT22;9169;44.492;11.372;2024-03-22T01:48:00;18.10;55.70
18085;DHT22;9169;44.492;11.372;2024-03-22T01:50:28;18.10;55.70
18085;DHT22;9169;44.492;11.372;2024-03-22T01:52:56;18.00;55.90
18085;DHT22;9169;44.492;11.372;2024-03-22T01:55:24;18.00;56.10
18085;DHT22;9169;44.492;11.372;2024-03-22T01:57:52;17.90;55.80
18085;DHT22;9169;44.492;11.372;2024-03-22T02:00:21;17.90;55.60
18085;DHT22;9169;44.492;11.372;2024-03-22T02:02:49;17.80;55.50
18085;DHT22;9169;44.492;11.372;2024-03-22T02:05:16;17.80;55.60
18085;DHT22;9169;44.492;11.372;2024-03-22T02:07:45;17.80;55.60
18085;DHT22;9169;44.492;11.372;2024-03-22T02:10:12;17.80;55.50
18085;DHT22;9169;44.492;11.372;2024-03-22T02:12:43;17.80;55.40
18085;DHT22;9169;44.492;11.372;2024-03-22T02:15:10;17.80;55.70
18085;DHT22;9169;44.492;11.372;2024-03-22T02:17:38;17.80;55.70
18085;DHT22;9169;44.492;11.372;2024-03-22T02:20:05;17.80;55.60
18085;DHT22;9169;44.492;11.372;2024-03-22T02:22:34;17.80;55.90
18085;DHT22;9169;44.492;11.372;2024-03-22T02:25:02;17.80;55.90
18085;DHT22;9169;44.492;11.372;2024-03-22T02:27:30;17.80;55.70
18085;DHT22;9169;44.492;11.372;2024-03-22T02:29:56;17.80;55.70
18085;DHT22;9169;44.492;11.372;2024-03-22T02:32:24;17.80;55.60
18085;DHT22;9169;44.492;11.372;2024-03-22T02:34:51;17.80;55.50
18085;DHT22;9169;44.492;11.372;2024-03-22T02:37:18;17.80;55.50
18085;DHT22;9169;44.492;11.372;2024-03-22T02:39:48;17.70;55.80
18085;DHT22;9169;44.492;11.372;2024-03-22T02:42:17;17.70;55.90
18085;DHT22;9169;44.492;11.372;2024-03-22T02:44:43;17.70;55.90
18085;DHT22;9169;44.492;11.372;2024-03-22T02:47:11;17.70;55.80
18085;DHT22;9169;44.492;11.372;2024-03-22T02:49:40;17.70;55.90
18085;DHT22;9169;44.492;11.372;2024-03-22T02:52:07;17.70;56.10
18085;DHT22;9169;44.492;11.372;2024-03-22T02:54:34;17.60;56.70
18085;DHT22;9169;44.492;11.372;2024-03-22T02:57:02;17.60;56.40
18085;DHT22;9169;44.492;11.372;2024-03-22T02:59:30;17.60;56.40
18085;DHT22;9169;44.492;11.372;2024-03-22T03:01:57;17.60;56.30
18085;DHT22;9169;44.492;11.372;2024-03-22T03:04:24;17.60;56.20
18085;DHT22;9169;44.492;11.372;2024-03-22T03:06:51;17.60;56.40
18085;DHT22;9169;44.492;11.372;2024-03-22T03:09:18;17.60;56.40
18085;DHT22;9169;44.492;11.372;2024-03-22T03:11:46;17.60;56.20
18085;DHT22;9169;44.492;11.372;2024-03-22T03:14:13;17.60;56.00
18085;DHT22;9169;44.492;11.372;2024-03-22T03:16:42;17.60;56.00
18085;DHT22;9169;44.492;11.372;2024-03-22T03:19:08;17.60;55.80
18085;DHT22;9169;44.492;11.372;2024-03-22T03:21:36;17.60;55.70
18085;DHT22;9169;44.492;11.372;2024-03-22T03:24:03;17.60;55.60
18085;DHT22;9169;44.492;11.372;2024-03-22T03:26:30;17.50;55.40
18085;DHT22;9169;44.492;11.372;2024-03-22T03:28:57;17.50;55.30
18085;DHT22;9169;44.492;11.372;2024-03-22T03:31:25;17.50;55.80
18085;DHT22;9169;44.492;11.372;2024-03-22T03:33:53;17.50;55.20
18085;DHT22;9169;44.492;11.372;2024-03-22T03:36:20;17.50;55.20
18085;DHT22;9169;44.492;11.372;2024-03-22T03:38:47;17.50;55.20
18085;DHT22;9169;44.492;11.372;2024-03-22T03:41:14;17.50;55.20
18085;DHT22;9169;44.492;11.372;2024-03-22T03:43:41;17.50;55.10
18085;DHT22;9169;44.492;11.372;2024-03-22T03:46:08;17.50;55.40
18085;DHT22;9169;44.492;11.372;2024-03-22T03:48:35;17.40;55.60
18085;DHT22;9169;44.492;11.372;2024-03-22T03:51:05;17.40;55.70
18085;DHT22;9169;44.492;11.372;2024-03-22T03:53:32;17.40;55.70
18085;DHT22;9169;44.492;11.372;2024-03-22T03:55:59;17.40;55.60
18085;DHT22;9169;44.492;11.372;2024-03-22T03:58:26;17.40;55.60
18085;DHT22;9169;44.492;11.372;2024-03-22T04:00:54;17.40;55.50
18085;DHT22;9169;44.492;11.372;2024-03-22T04:03:20;17.30;55.50
18085;DHT22;9169;44.492;11.372;2024-03-22T04:05:56;17.30;55.90
18085;DHT22;9169;44.492;11.372;2024-03-22T04:08:24;17.30;56.30
18085;DHT22;9169;44.492;11.372;2024-03-22T04:10:52;17.20;56.40
18085;DHT22;9169;44.492;11.372;2024-03-22T04:13:19;17.20;56.30
18085;DHT22;9169;44.492;11.372;2024-03-22T04:15:46;17.10;56.30
18085;DHT22;9169;44.492;11.372;2024-03-22T04:18:13;17.10;56.30
18085;DHT22;9169;44.492;11.372;2024-03-22T04:20:41;17.00;56.40
18085;DHT22;9169;44.492;11.372;2024-03-22T04:23:07;16.90;56.40
18085;DHT22;9169;44.492;11.372;2024-03-22T04:25:36;16.90;56.50
18085;DHT22;9169;44.492;11.372;2024-03-22T04:28:03;16.90;56.50
18085;DHT22;9169;44.492;11.372;2024-03-22T04:30:31;16.90;56.50
18085;DHT22;9169;44.492;11.372;2024-03-22T04:32:57;16.80;56.40
18085;DHT22;9169;44.492;11.372;2024-03-22T04:35:25;16.80;56.60
18085;DHT22;9169;44.492;11.372;2024-03-22T04:37:52;16.80;56.60
18085;DHT22;9169;44.492;11.372;2024-03-22T04:40:19;16.80;56.40
18085;DHT22;9169;44.492;11.372;2024-03-22T04:42:48;16.80;56.40
18085;DHT22;9169;44.492;11.372;2024-03-22T04:45:16;16.80;56.30
18085;DHT22;9169;44.492;11.372;2024-03-22T04:47:44;16.80;56.30
18085;DHT22;9169;44.492;11.372;2024-03-22T04:50:10;16.70;56.30
18085;DHT22;9169;44.492;11.372;2024-03-22T04:52:40;16.70;56.20
18085;DHT22;9169;44.492;11.372;2024-03-22T04:55:07;16.70;56.10
18085;DHT22;9169;44.492;11.372;2024-03-22T04:57:35;16.70;56.00
18085;DHT22;9169;44.492;11.372;2024-03-22T05:00:04;16.70;55.90
18085;DHT22;9169;44.492;11.372;2024-03-22T05:02:33;16.70;55.80
18085;DHT22;9169;44.492;11.372;2024-03-22T05:05:00;16.70;55.80
18085;DHT22;9169;44.492;11.372;2024-03-22T05:07:27;16.70;55.70
18085;DHT22;9169;44.492;11.372;2024-03-22T05:09:54;16.80;55.80
18085;DHT22;9169;44.492;11.372;2024-03-22T05:12:22;16.70;55.70
18085;DHT22;9169;44.492;11.372;2024-03-22T05:14:48;16.70;55.60
18085;DHT22;9169;44.492;11.372;2024-03-22T05:17:17;16.70;55.50
18085;DHT22;9169;44.492;11.372;2024-03-22T05:19:44;16.70;55.50
18085;DHT22;9169;44.492;11.372;2024-03-22T05:22:12;16.70;55.50
18085;DHT22;9169;44.492;11.372;2024-03-22T05:24:38;16.70;56.20
18085;DHT22;9169;44.492;11.372;2024-03-22T05:27:07;16.60;55.90
18085;DHT22;9169;44.492;11.372;2024-03-22T05:29:35;16.60;56.20
18085;DHT22;9169;44.492;11.372;2024-03-22T05:32:03;16.60;56.20
18085;DHT22;9169;44.492;11.372;2024-03-22T05:34:33;16.60;56.20
18085;DHT22;9169;44.492;11.372;2024-03-22T05:37:00;16.60;56.10
18085;DHT22;9169;44.492;11.372;2024-03-22T05:39:27;16.60;56.10
18085;DHT22;9169;44.492;11.372;2024-03-22T05:41:54;16.60;56.00
18085;DHT22;9169;44.492;11.372;2024-03-22T05:44:22;16.60;55.90
18085;DHT22;9169;44.492;11.372;2024-03-22T05:46:48;16.60;56.20
18085;DHT22;9169;44.492;11.372;2024-03-22T05:49:16;16.60;56.20
18085;DHT22;9169;44.492;11.372;2024-03-22T05:51:44;16.60;56.20
18085;DHT22;9169;44.492;11.372;2024-03-22T05:54:12;16.60;56.40
18085;DHT22;9169;44.492;11.372;2024-03-22T05:56:38;16.60;56.30
18085;DHT22;9169;44.492;11.372;2024-03-22T05:59:06;16.70;56.60
18085;DHT22;9169;44.492;11.372;2024-03-22T06:01:32;16.70;56.50
18085;DHT22;9169;44.492;11.372;2024-03-22T06:04:00;16.70;56.50
18085;DHT22;9169;44.492;11.372;2024-03-22T06:06:27;16.70;56.40
18085;DHT22;9169;44.492;11.372;2024-03-22T06:08:56;16.70;56.50
18085;DHT22;9169;44.492;11.372;2024-03-22T06:11:26;16.70;56.50
18085;DHT22;9169;44.492;11.372;2024-03-22T06:13:53;16.70;56.50
18085;DHT22;9169;44.492;11.372;2024-03-22T06:16:21;16.70;56.50
18085;DHT22;9169;44.492;11.372;2024-03-22T06:18:49;16.70;56.60
18085;DHT22;9169;44.492;11.372;2024-03-22T06:21:16;16.70;56.60
18085;DHT22;9169;44.492;11.372;2024-03-22T06:23:49;16.80;56.70
18085;DHT22;9169;44.492;11.372;2024-03-22T06:26:17;16.80;56.70
18085;DHT22;9169;44.492;11.372;2024-03-22T06:28:45;16.80;56.70
18085;DHT22;9169;44.492;11.372;2024-03-22T06:31:11;16.80;56.70
18085;DHT22;9169;44.492;11.372;2024-03-22T06:33:39;16.80;56.90
18085;DHT22;9169;44.492;11.372;2024-03-22T06:36:06;16.80;56.90
18085;DHT22;9169;44.492;11.372;2024-03-22T06:38:35;16.90;57.20
18085;DHT22;9169;44.492;11.372;2024-03-22T06:41:04;16.90;57.30
18085;DHT22;9169;44.492;11.372;2024-03-22T06:43:34;16.90;57.60
18085;DHT22;9169;44.492;11.372;2024-03-22T06:46:00;16.90;57.80
18085;DHT22;9169;44.492;11.372;2024-03-22T06:48:28;16.90;57.90
18085;DHT22;9169;44.492;11.372;2024-03-22T06:50:55;16.90;58.00
18085;DHT22;9169;44.492;11.372;2024-03-22T06:53:22;17.00;58.20
18085;DHT22;9169;44.492;11.372;2024-03-22T06:55:49;17.00;58.30
18085;DHT22;9169;44.492;11.372;2024-03-22T06:58:16;17.10;58.40
18085;DHT22;9169;44.492;11.372;2024-03-22T07:00:44;17.10;58.50
18085;DHT22;9169;44.492;11.372;2024-03-22T07:03:12;17.10;58.70
18085;DHT22;9169;44.492;11.372;2024-03-22T07:05:39;17.10;58.90
18085;DHT22;9169;44.492;11.372;2024-03-22T07:08:06;17.20;59.00
18085;DHT22;9169;44.492;11.372;2024-03-22T07:10:33;17.20;59.00
18085;DHT22;9169;44.492;11.372;2024-03-22T07:13:00;17.30;59.10
18085;DHT22;9169;44.492;11.372;2024-03-22T07:15:27;17.30;59.30
18085;DHT22;9169;44.492;11.372;2024-03-22T07:17:59;17.30;59.40
18085;DHT22;9169;44.492;11.372;2024-03-22T07:20:25;17.40;59.50
18085;DHT22;9169;44.492;11.372;2024-03-22T07:22:53;17.40;59.50
18085;DHT22;9169;44.492;11.372;2024-03-22T07:25:20;17.50;59.70
18085;DHT22;9169;44.492;11.372;2024-03-22T07:27:47;17.50;59.70
18085;DHT22;9169;44.492;11.372;2024-03-22T07:30:15;17.60;59.70
18085;DHT22;9169;44.492;11.372;2024-03-22T07:32:43;17.60;59.70
18085;DHT22;9169;44.492;11.372;2024-03-22T07:35:11;17.70;59.60
18085;DHT22;9169;44.492;11.372;2024-03-22T07:37:39;17.70;59.60
18085;DHT22;9169;44.492;11.372;2024-03-22T07:40:06;17.80;59.60
18085;DHT22;9169;44.492;11.372;2024-03-22T07:42:34;17.80;59.70
18085;DHT22;9169;44.492;11.372;2024-03-22T07:45:01;17.90;59.70
18085;DHT22;9169;44.492;11.372;2024-03-22T07:47:29;18.00;59.80
18085;DHT22;9169;44.492;11.372;2024-03-22T07:49:56;18.00;59.70
18085;DHT22;9169;44.492;11.372;2024-03-22T07:52:25;18.10;59.70
18085;DHT22;9169;44.492;11.372;2024-03-22T07:54:51;18.30;59.70
18085;DHT22;9169;44.492;11.372;2024-03-22T07:57:22;18.20;59.30
18085;DHT22;9169;44.492;11.372;2024-03-22T07:59:49;18.20;58.60
18085;DHT22;9169;44.492;11.372;2024-03-22T08:02:17;18.30;58.20
18085;DHT22;9169;44.492;11.372;2024-03-22T08:04:44;18.40;57.90
18085;DHT22;9169;44.492;11.372;2024-03-22T08:07:12;18.40;57.60
18085;DHT22;9169;44.492;11.372;2024-03-22T08:09:40;18.40;57.50
18085;DHT22;9169;44.492;11.372;2024-03-22T08:12:07;18.50;57.50
18085;DHT22;9169;44.492;11.372;2024-03-22T08:14:34;18.60;57.50
18085;DHT22;9169;44.492;11.372;2024-03-22T08:17:03;18.60;57.50
18085;DHT22;9169;44.492;11.372;2024-03-22T08:19:29;18.70;57.60
18085;DHT22;9169;44.492;11.372;2024-03-22T08:21:57;18.70;57.90
18085;DHT22;9169;44.492;11.372;2024-03-22T08:24:24;18.80;57.40
18085;DHT22;9169;44.492;11.372;2024-03-22T08:26:53;18.80;57.20
18085;DHT22;9169;44.492;11.372;2024-03-22T08:29:20;18.90;57.10
18085;DHT22;9169;44.492;11.372;2024-03-22T08:31:48;18.90;57.10
18085;DHT22;9169;44.492;11.372;2024-03-22T08:34:16;19.00;56.80
18085;DHT22;9169;44.492;11.372;2024-03-22T08:36:43;19.00;56.40
18085;DHT22;9169;44.492;11.372;2024-03-22T08:39:10;19.00;56.10
18085;DHT22;9169;44.492;11.372;2024-03-22T08:41:38;19.10;56.20
18085;DHT22;9169;44.492;11.372;2024-03-22T08:44:06;19.10;56.10
18085;DHT22;9169;44.492;11.372;2024-03-22T08:46:33;19.20;56.20
18085;DHT22;9169;44.492;11.372;2024-03-22T08:49:00;19.20;56.20
18085;DHT22;9169;44.492;11.372;2024-03-22T08:51:29;19.20;56.10
18085;DHT22;9169;44.492;11.372;2024-03-22T08:53:56;19.20;56.10
18085;DHT22;9169;44.492;11.372;2024-03-22T08:56:24;19.20;55.90
18085;DHT22;9169;44.492;11.372;2024-03-22T08:58:51;19.30;55.80
18085;DHT22;9169;44.492;11.372;2024-03-22T09:01:20;19.30;55.80
18085;DHT22;9169;44.492;11.372;2024-03-22T09:03:46;19.30;55.80
18085;DHT22;9169;44.492;11.372;2024-03-22T09:06:15;19.30;55.70
18085;DHT22;9169;44.492;11.372;2024-03-22T09:08:42;19.40;55.40
18085;DHT22;9169;44.492;11.372;2024-03-22T09:11:09;19.40;55.30
18085;DHT22;9169;44.492;11.372;2024-03-22T09:13:36;19.40;55.30
18085;DHT22;9169;44.492;11.372;2024-03-22T09:16:05;19.50;55.50
18085;DHT22;9169;44.492;11.372;2024-03-22T09:18:32;19.50;55.70
18085;DHT22;9169;44.492;11.372;2024-03-22T09:21:00;19.60;55.90
18085;DHT22;9169;44.492;11.372;2024-03-22T09:23:27;19.60;55.90
18085;DHT22;9169;44.492;11.372;2024-03-22T09:25:54;19.60;55.80
18085;DHT22;9169;44.492;11.372;2024-03-22T09:28:21;19.60;55.70
18085;DHT22;9169;44.492;11.372;2024-03-22T09:30:49;19.70;55.90
18085;DHT22;9169;44.492;11.372;2024-03-22T09:33:15;19.70;56.00
18085;DHT22;9169;44.492;11.372;2024-03-22T09:35:45;19.80;56.20
18085;DHT22;9169;44.492;11.372;2024-03-22T09:38:12;19.80;56.30
18085;DHT22;9169;44.492;11.372;2024-03-22T09:40:44;19.80;56.40
18085;DHT22;9169;44.492;11.372;2024-03-22T09:43:15;19.90;56.50
18085;DHT22;9169;44.492;11.372;2024-03-22T09:45:45;19.90;56.50
18085;DHT22;9169;44.492;11.372;2024-03-22T09:48:12;20.00;56.40
18085;DHT22;9169;44.492;11.372;2024-03-22T09:50:41;20.20;56.30
18085;DHT22;9169;44.492;11.372;2024-03-22T09:53:10;20.50;55.80
18085;DHT22;9169;44.492;11.372;2024-03-22T09:55:38;20.70;55.80
18085;DHT22;9169;44.492;11.372;2024-03-22T09:58:06;21.10;56.20
18085;DHT22;9169;44.492;11.372;2024-03-22T10:00:33;21.60;56.50
18085;DHT22;9169;44.492;11.372;2024-03-22T10:03:00;22.40;56.30
18085;DHT22;9169;44.492;11.372;2024-03-22T10:05:30;23.10;55.30
18085;DHT22;9169;44.492;11.372;2024-03-22T10:07:57;23.80;54.80
18085;DHT22;9169;44.492;11.372;2024-03-22T10:10:26;24.50;53.70
18085;DHT22;9169;44.492;11.372;2024-03-22T10:12:53;25.10;53.00
18085;DHT22;9169;44.492;11.372;2024-03-22T10:15:24;25.70;51.60
18085;DHT22;9169;44.492;11.372;2024-03-22T10:17:52;26.30;50.20
18085;DHT22;9169;44.492;11.372;2024-03-22T10:20:22;26.80;50.00
18085;DHT22;9169;44.492;11.372;2024-03-22T10:22:55;27.30;48.90
18085;DHT22;9169;44.492;11.372;2024-03-22T10:25:26;27.60;48.30
18085;DHT22;9169;44.492;11.372;2024-03-22T10:27:54;27.90;47.90
18085;DHT22;9169;44.492;11.372;2024-03-22T10:30:23;28.00;47.50
18085;DHT22;9169;44.492;11.372;2024-03-22T10:32:51;28.30;46.50
18085;DHT22;9169;44.492;11.372;2024-03-22T10:35:18;28.60;46.50
18085;DHT22;9169;44.492;11.372;2024-03-22T10:37:45;28.90;45.20
18085;DHT22;9169;44.492;11.372;2024-03-22T10:40:13;29.10;44.50
18085;DHT22;9169;44.492;11.372;2024-03-22T10:42:42;29.50;44.20
18085;DHT22;9169;44.492;11.372;2024-03-22T10:45:12;29.80;43.80
18085;DHT22;9169;44.492;11.372;2024-03-22T10:47:42;30.00;43.00
18085;DHT22;9169;44.492;11.372;2024-03-22T10:50:12;30.20;41.60
18085;DHT22;9169;44.492;11.372;2024-03-22T10:52:43;30.40;42.10
18085;DHT22;9169;44.492;11.372;2024-03-22T10:55:17;30.70;41.80
18085;DHT22;9169;44.492;11.372;2024-03-22T10:57:48;30.90;42.00
18085;DHT22;9169;44.492;11.372;2024-03-22T11:00:16;31.30;41.60
18085;DHT22;9169;44.492;11.372;2024-03-22T11:02:53;31.70;41.00
18085;DHT22;9169;44.492;11.372;2024-03-22T11:05:25;32.20;40.50
18085;DHT22;9169;44.492;11.372;2024-03-22T11:07:59;32.50;39.10
18085;DHT22;9169;44.492;11.372;2024-03-22T11:10:30;32.50;37.60
18085;DHT22;9169;44.492;11.372;2024-03-22T11:13:02;32.60;37.70
18085;DHT22;9169;44.492;11.372;2024-03-22T11:15:31;32.70;37.80
18085;DHT22;9169;44.492;11.372;2024-03-22T11:18:16;33.00;37.40
18085;DHT22;9169;44.492;11.372;2024-03-22T11:20:44;33.20;35.50
18085;DHT22;9169;44.492;11.372;2024-03-22T11:23:13;33.10;35.40
18085;DHT22;9169;44.492;11.372;2024-03-22T11:25:41;33.00;35.00
18085;DHT22;9169;44.492;11.372;2024-03-22T11:28:09;32.80;35.60
18085;DHT22;9169;44.492;11.372;2024-03-22T11:30:38;33.00;36.00
18085;DHT22;9169;44.492;11.372;2024-03-22T11:33:05;33.20;35.80
18085;DHT22;9169;44.492;11.372;2024-03-22T11:35:33;33.30;35.50
18085;DHT22;9169;44.492;11.372;2024-03-22T11:38:00;33.40;35.10
18085;DHT22;9169;44.492;11.372;2024-03-22T11:40:31;33.40;35.40
18085;DHT22;9169;44.492;11.372;2024-03-22T11:43:00;33.60;34.70
18085;DHT22;9169;44.492;11.372;2024-03-22T11:45:30;33.60;34.70
18085;DHT22;9169;44.492;11.372;2024-03-22T11:48:01;33.40;34.10
18085;DHT22;9169;44.492;11.372;2024-03-22T11:50:29;33.40;33.70
18085;DHT22;9169;44.492;11.372;2024-03-22T11:52:56;33.50;34.00
18085;DHT22;9169;44.492;11.372;2024-03-22T11:55:26;33.70;33.60
18085;DHT22;9169;44.492;11.372;2024-03-22T11:57:54;33.90;33.50
18085;DHT22;9169;44.492;11.372;2024-03-22T12:00:25;34.20;33.60
18085;DHT22;9169;44.492;11.372;2024-03-22T12:02:53;34.60;32.90
18085;DHT22;9169;44.492;11.372;2024-03-22T12:05:21;35.00;32.00
18085;DHT22;9169;44.492;11.372;2024-03-22T12:07:48;35.10;32.10
18085;DHT22;9169;44.492;11.372;2024-03-22T12:10:15;35.20;31.70
18085;DHT22;9169;44.492;11.372;2024-03-22T12:12:42;35.40;31.90
18085;DHT22;9169;44.492;11.372;2024-03-22T12:15:10;35.80;31.90
18085;DHT22;9169;44.492;11.372;2024-03-22T12:17:36;36.10;31.60
18085;DHT22;9169;44.492;11.372;2024-03-22T12:20:09;36.40;31.60
18085;DHT22;9169;44.492;11.372;2024-03-22T12:22:36;36.60;31.30
18085;DHT22;9169;44.492;11.372;2024-03-22T12:25:06;36.60;31.00
18085;DHT22;9169;44.492;11.372;2024-03-22T12:27:33;36.60;30.20
18085;DHT22;9169;44.492;11.372;2024-03-22T12:30:00;36.50;30.90
18085;DHT22;9169;44.492;11.372;2024-03-22T12:32:27;36.30;30.70
18085;DHT22;9169;44.492;11.372;2024-03-22T12:34:55;36.20;30.50
18085;DHT22;9169;44.492;11.372;2024-03-22T12:37:23;36.10;29.90
18085;DHT22;9169;44.492;11.372;2024-03-22T12:39:51;36.10;29.70
18085;DHT22;9169;44.492;11.372;2024-03-22T12:42:18;36.30;29.80
18085;DHT22;9169;44.492;11.372;2024-03-22T12:44:46;36.10;29.50
18085;DHT22;9169;44.492;11.372;2024-03-22T12:47:13;35.60;29.20
18085;DHT22;9169;44.492;11.372;2024-03-22T12:49:40;34.90;29.90
18085;DHT22;9169;44.492;11.372;2024-03-22T12:52:07;34.10;29.90
18085;DHT22;9169;44.492;11.372;2024-03-22T12:54:36;33.50;30.30
18085;DHT22;9169;44.492;11.372;2024-03-22T12:57:03;33.20;30.70
18085;DHT22;9169;44.492;11.372;2024-03-22T12:59:31;33.40;31.20
18085;DHT22;9169;44.492;11.372;2024-03-22T13:01:58;33.80;31.70
18085;DHT22;9169;44.492;11.372;2024-03-22T13:04:26;34.30;31.60
18085;DHT22;9169;44.492;11.372;2024-03-22T13:06:54;34.60;31.60
18085;DHT22;9169;44.492;11.372;2024-03-22T13:09:23;35.00;31.00
18085;DHT22;9169;44.492;11.372;2024-03-22T13:11:51;35.30;30.90
18085;DHT22;9169;44.492;11.372;2024-03-22T13:14:28;35.60;30.40
18085;DHT22;9169;44.492;11.372;2024-03-22T13:16:57;35.90;30.10
18085;DHT22;9169;44.492;11.372;2024-03-22T13:19:25;36.30;31.20
18085;DHT22;9169;44.492;11.372;2024-03-22T13:21:52;36.40;29.80
18085;DHT22;9169;44.492;11.372;2024-03-22T13:24:20;36.50;29.60
18085;DHT22;9169;44.492;11.372;2024-03-22T13:26:47;36.70;29.70
18085;DHT22;9169;44.492;11.372;2024-03-22T13:29:16;37.00;30.00
18085;DHT22;9169;44.492;11.372;2024-03-22T13:31:43;37.00;29.40
18085;DHT22;9169;44.492;11.372;2024-03-22T13:34:11;37.10;29.90
18085;DHT22;9169;44.492;11.372;2024-03-22T13:36:39;37.20;29.50
18085;DHT22;9169;44.492;11.372;2024-03-22T13:39:06;37.40;29.10
18085;DHT22;9169;44.492;11.372;2024-03-22T13:41:36;37.70;29.10
18085;DHT22;9169;44.492;11.372;2024-03-22T13:44:04;38.10;29.30
18085;DHT22;9169;44.492;11.372;2024-03-22T13:46:35;38.50;28.60
18085;DHT22;9169;44.492;11.372;2024-03-22T13:49:14;38.40;27.20
18085;DHT22;9169;44.492;11.372;2024-03-22T13:51:42;38.20;27.40
18085;DHT22;9169;44.492;11.372;2024-03-22T13:54:10;38.00;27.30
18085;DHT22;9169;44.492;11.372;2024-03-22T13:56:36;37.70;27.20
18085;DHT22;9169;44.492;11.372;2024-03-22T13:59:04;37.70;27.80
18085;DHT22;9169;44.492;11.372;2024-03-22T14:01:31;37.60;27.70
18085;DHT22;9169;44.492;11.372;2024-03-22T14:04:01;37.60;27.80
18085;DHT22;9169;44.492;11.372;2024-03-22T14:06:28;37.50;27.60
18085;DHT22;9169;44.492;11.372;2024-03-22T14:08:55;37.60;28.00
18085;DHT22;9169;44.492;11.372;2024-03-22T14:11:27;37.70;27.90
18085;DHT22;9169;44.492;11.372;2024-03-22T14:13:56;37.80;27.40
18085;DHT22;9169;44.492;11.372;2024-03-22T14:16:23;37.80;27.70
18085;DHT22;9169;44.492;11.372;2024-03-22T14:18:52;37.80;27.90
18085;DHT22;9169;44.492;11.372;2024-03-22T14:21:20;38.00;27.70
18085;DHT22;9169;44.492;11.372;2024-03-22T14:23:48;38.10;27.30
18085;DHT22;9169;44.492;11.372;2024-03-22T14:26:15;38.20;26.60
18085;DHT22;9169;44.492;11.372;2024-03-22T14:28:44;38.20;27.30
18085;DHT22;9169;44.492;11.372;2024-03-22T14:31:11;38.10;26.90
18085;DHT22;9169;44.492;11.372;2024-03-22T14:33:39;38.00;27.10
18085;DHT22;9169;44.492;11.372;2024-03-22T14:36:06;38.10;27.10
18085;DHT22;9169;44.492;11.372;2024-03-22T14:38:36;38.10;27.20
18085;DHT22;9169;44.492;11.372;2024-03-22T14:41:03;38.20;26.70
18085;DHT22;9169;44.492;11.372;2024-03-22T14:43:31;38.20;27.00
18085;DHT22;9169;44.492;11.372;2024-03-22T14:46:01;38.00;26.70
18085;DHT22;9169;44.492;11.372;2024-03-22T14:48:30;37.60;27.20
18085;DHT22;9169;44.492;11.372;2024-03-22T14:50:57;37.20;27.20
18085;DHT22;9169;44.492;11.372;2024-03-22T14:53:25;37.10;27.60
18085;DHT22;9169;44.492;11.372;2024-03-22T14:55:53;37.00;27.30
18085;DHT22;9169;44.492;11.372;2024-03-22T14:58:26;37.00;27.00
18085;DHT22;9169;44.492;11.372;2024-03-22T15:00:53;36.60;26.80
18085;DHT22;9169;44.492;11.372;2024-03-22T15:03:22;36.40;27.30
18085;DHT22;9169;44.492;11.372;2024-03-22T15:05:50;36.20;26.80
18085;DHT22;9169;44.492;11.372;2024-03-22T15:08:18;36.00;27.50
18085;DHT22;9169;44.492;11.372;2024-03-22T15:10:45;35.90;27.60
18085;DHT22;9169;44.492;11.372;2024-03-22T15:13:15;35.70;27.80
18085;DHT22;9169;44.492;11.372;2024-03-22T15:15:43;35.60;27.70
18085;DHT22;9169;44.492;11.372;2024-03-22T15:18:12;35.40;27.90
18085;DHT22;9169;44.492;11.372;2024-03-22T15:20:38;35.10;28.00
18085;DHT22;9169;44.492;11.372;2024-03-22T15:23:09;34.90;28.00
18085;DHT22;9169;44.492;11.372;2024-03-22T15:25:35;34.70;28.10
18085;DHT22;9169;44.492;11.372;2024-03-22T15:28:04;34.40;27.80
18085;DHT22;9169;44.492;11.372;2024-03-22T15:30:33;34.00;27.90
18085;DHT22;9169;44.492;11.372;2024-03-22T15:33:04;33.70;28.00
18085;DHT22;9169;44.492;11.372;2024-03-22T15:35:31;33.30;28.20